createdAt,value
2016-04-06T00:00:02.504Z,0
2016-04-06T00:01:02.491Z,0
2016-04-06T00:02:02.510Z,0
2016-04-06T00:03:02.529Z,0
2016-04-06T00:04:02.515Z,0
2016-04-06T00:05:02.534Z,0
2016-04-06T00:06:02.551Z,0
2016-04-06T00:07:02.523Z,0
2016-04-06T00:08:02.542Z,0
2016-04-06T00:09:02.544Z,0
2016-04-06T00:10:02.547Z,0
2016-04-06T00:11:02.549Z,0
2016-04-06T00:12:02.583Z,0
2016-04-06T00:13:02.570Z,0
2016-04-06T00:14:02.572Z,0
2016-04-06T00:15:02.575Z,0
2016-04-06T00:16:02.594Z,0
2016-04-06T00:17:02.611Z,0
2016-04-06T00:18:02.614Z,0
2016-04-06T00:19:02.649Z,0
2016-04-06T00:20:04.964Z,0
2016-04-06T00:21:02.622Z,0
2016-04-06T00:22:02.469Z,0
2016-04-06T00:23:02.628Z,0
2016-04-06T00:24:02.631Z,0
2016-04-06T00:25:02.665Z,0
2016-04-06T00:26:02.652Z,0
2016-04-06T00:27:02.654Z,0
2016-04-06T00:28:02.673Z,0
2016-04-06T00:29:02.660Z,0
2016-04-06T00:30:02.663Z,0
2016-04-06T00:31:02.682Z,0
2016-04-06T00:32:02.685Z,0
2016-04-06T00:33:02.702Z,0
2016-04-06T00:34:02.987Z,0
2016-04-06T00:35:02.707Z,0
2016-04-06T00:36:02.710Z,0
2016-04-06T00:37:02.744Z,0
2016-04-06T00:38:02.715Z,0
2016-04-06T00:39:02.718Z,0
2016-04-06T00:40:02.737Z,0
2016-04-06T00:41:02.740Z,0
2016-04-06T00:42:02.758Z,0
2016-04-06T00:43:02.761Z,0
2016-04-06T00:44:02.794Z,0
2016-04-06T00:45:02.766Z,0
2016-04-06T00:46:02.769Z,0
2016-04-06T00:47:02.771Z,0
2016-04-06T00:48:02.775Z,0
2016-04-06T00:49:02.823Z,0
2016-04-06T00:50:02.780Z,0
2016-04-06T00:51:02.797Z,0
2016-04-06T00:52:02.816Z,0
2016-04-06T00:53:02.803Z,0
2016-04-06T00:54:02.821Z,0
2016-04-06T00:55:02.824Z,0
2016-04-06T00:56:02.841Z,0
2016-04-06T00:57:02.861Z,0
2016-04-06T00:58:02.863Z,0
2016-04-06T00:59:02.850Z,0
2016-04-06T01:00:02.853Z,0
2016-04-06T01:01:02.855Z,0
2016-04-06T01:02:02.874Z,0
2016-04-06T01:03:02.877Z,0
2016-04-06T01:04:03.004Z,0
2016-04-06T01:05:02.898Z,0
2016-04-06T01:06:02.884Z,0
2016-04-06T01:07:02.903Z,0
2016-04-06T01:08:02.906Z,0
2016-04-06T01:09:02.909Z,0
2016-04-06T01:10:02.927Z,0
2016-04-06T01:11:02.914Z,0
2016-04-06T01:12:02.932Z,0
2016-04-06T01:13:02.934Z,0
2016-04-06T01:14:02.953Z,0
2016-04-06T01:15:02.972Z,0
2016-04-06T01:16:02.975Z,0
2016-04-06T01:17:02.962Z,0
2016-04-06T01:18:02.964Z,0
2016-04-06T01:19:03.264Z,0
2016-04-06T01:20:02.985Z,0
2016-04-06T01:21:02.988Z,0
2016-04-06T01:22:02.975Z,0
2016-04-06T01:23:03.008Z,0
2016-04-06T01:24:02.996Z,0
2016-04-06T01:25:03.029Z,0
2016-04-06T01:26:03.017Z,0
2016-04-06T01:27:03.019Z,0
2016-04-06T01:28:03.022Z,0
2016-04-06T01:29:03.041Z,0
2016-04-06T01:30:03.027Z,0
2016-04-06T01:31:03.030Z,0
2016-04-06T01:32:03.032Z,0
2016-04-06T01:33:03.051Z,0
2016-04-06T01:34:03.100Z,0
2016-04-06T01:35:03.071Z,0
2016-04-06T01:36:03.090Z,0
2016-04-06T01:37:03.077Z,0
2016-04-06T01:38:03.080Z,0
2016-04-06T01:39:03.083Z,0
2016-04-06T01:40:03.085Z,0
2016-04-06T01:41:03.104Z,0
2016-04-06T01:42:03.106Z,0
2016-04-06T01:43:03.109Z,0
2016-04-06T01:44:03.128Z,0
2016-04-06T01:45:03.131Z,0
2016-04-06T01:46:03.149Z,0
2016-04-06T01:47:03.136Z,0
2016-04-06T01:48:03.123Z,0
2016-04-06T01:49:03.141Z,0
2016-04-06T01:50:03.175Z,0
2016-04-06T01:51:03.161Z,0
2016-04-06T01:52:03.149Z,0
2016-04-06T01:53:03.183Z,0
2016-04-06T01:54:03.169Z,0
2016-04-06T01:55:03.173Z,0
2016-04-06T01:56:03.191Z,0
2016-04-06T01:57:03.194Z,0
2016-04-06T01:58:03.197Z,0
2016-04-06T01:59:03.215Z,0
2016-04-06T02:00:03.202Z,0
2016-04-06T02:01:03.220Z,0
2016-04-06T02:02:03.207Z,0
2016-04-06T02:03:03.225Z,0
2016-04-06T02:04:03.243Z,0
2016-04-06T02:05:03.246Z,0
2016-04-06T02:06:03.296Z,0
2016-04-06T02:07:03.283Z,0
2016-04-06T02:08:02.949Z,0
2016-04-06T02:09:03.265Z,0
2016-04-06T02:10:03.285Z,0
2016-04-06T02:11:03.271Z,0
2016-04-06T02:12:03.258Z,0
2016-04-06T02:13:03.307Z,0
2016-04-06T02:14:03.295Z,0
2016-04-06T02:15:03.298Z,0
2016-04-06T02:16:03.316Z,0
2016-04-06T02:17:03.319Z,0
2016-04-06T02:18:03.306Z,0
2016-04-06T02:19:03.340Z,0
2016-04-06T02:20:03.342Z,0
2016-04-06T02:21:03.329Z,0
2016-04-06T02:22:03.348Z,0
2016-04-06T02:23:03.351Z,0
2016-04-06T02:24:03.354Z,0
2016-04-06T02:25:03.371Z,0
2016-04-06T02:26:03.374Z,0
2016-04-06T02:27:03.392Z,0
2016-04-06T02:28:03.379Z,0
2016-04-06T02:29:03.397Z,0
2016-04-06T02:30:03.400Z,0
2016-04-06T02:31:03.387Z,0
2016-04-06T02:32:03.406Z,0
2016-04-06T02:33:03.409Z,0
2016-04-06T02:34:03.428Z,0
2016-04-06T02:35:03.414Z,0
2016-04-06T02:36:03.433Z,0
2016-04-06T02:37:03.435Z,0
2016-04-06T02:38:03.438Z,0
2016-04-06T02:39:03.441Z,0
2016-04-06T02:40:03.458Z,0
2016-04-06T02:41:03.446Z,0
2016-04-06T02:42:03.464Z,0
2016-04-06T02:43:03.466Z,0
2016-04-06T02:44:03.469Z,0
2016-04-06T02:45:03.472Z,0
2016-04-06T02:46:03.491Z,0
2016-04-06T02:47:03.493Z,0
2016-04-06T02:48:03.496Z,0
2016-04-06T02:49:03.498Z,0
2016-04-06T02:50:03.517Z,0
2016-04-06T02:51:03.504Z,0
2016-04-06T02:52:03.507Z,0
2016-04-06T02:53:03.526Z,0
2016-04-06T02:54:03.528Z,0
2016-04-06T02:55:03.531Z,0
2016-04-06T02:56:03.548Z,0
2016-04-06T02:57:03.567Z,0
2016-04-06T02:58:03.554Z,0
2016-04-06T02:59:03.572Z,0
2016-04-06T03:00:03.559Z,0
2016-04-06T03:01:03.562Z,0
2016-04-06T03:02:03.581Z,0
2016-04-06T03:03:03.599Z,0
2016-04-06T03:04:03.601Z,0
2016-04-06T03:05:03.589Z,0
2016-04-06T03:06:03.607Z,0
2016-04-06T03:07:03.609Z,0
2016-04-06T03:08:03.612Z,0
2016-04-06T03:09:03.630Z,0
2016-04-06T03:10:03.649Z,0
2016-04-06T03:11:03.666Z,0
2016-04-06T03:12:03.638Z,0
2016-04-06T03:13:03.625Z,0
2016-04-06T03:14:03.644Z,0
2016-04-06T03:15:03.663Z,0
2016-04-06T03:16:03.680Z,0
2016-04-06T03:17:03.699Z,0
2016-04-06T03:18:03.670Z,0
2016-04-06T03:19:03.673Z,0
2016-04-06T03:20:03.691Z,0
2016-04-06T03:21:03.694Z,0
2016-04-06T03:22:03.697Z,0
2016-04-06T03:23:03.715Z,0
2016-04-06T03:24:03.702Z,0
2016-04-06T03:25:03.720Z,0
2016-04-06T03:26:03.723Z,0
2016-04-06T03:27:03.725Z,0
2016-04-06T03:28:03.728Z,0
2016-04-06T03:29:03.747Z,0
2016-04-06T03:30:03.749Z,0
2016-04-06T03:31:03.768Z,0
2016-04-06T03:32:03.755Z,0
2016-04-06T03:33:03.758Z,0
2016-04-06T03:34:03.776Z,0
2016-04-06T03:35:03.779Z,0
2016-04-06T03:36:03.766Z,0
2016-04-06T03:37:03.784Z,0
2016-04-06T03:38:03.896Z,0
2016-04-06T03:39:03.805Z,0
2016-04-06T03:40:03.822Z,0
2016-04-06T03:41:03.810Z,0
2016-04-06T03:42:03.813Z,0
2016-04-06T03:43:03.816Z,0
2016-04-06T03:44:03.819Z,0
2016-04-06T03:45:03.680Z,0
2016-04-06T03:46:03.839Z,0
2016-04-06T03:47:03.873Z,0
2016-04-06T03:48:03.860Z,0
2016-04-06T03:49:03.894Z,0
2016-04-06T03:50:03.866Z,0
2016-04-06T03:51:03.868Z,0
2016-04-06T03:52:03.887Z,0
2016-04-06T03:53:03.890Z,0
2016-04-06T03:54:03.892Z,0
2016-04-06T03:55:03.895Z,0
2016-04-06T03:56:03.898Z,0
2016-04-06T03:57:03.900Z,0
2016-04-06T03:58:03.918Z,0
2016-04-06T03:59:03.905Z,0
2016-04-06T04:00:03.924Z,0
2016-04-06T04:01:03.942Z,0
2016-04-06T04:02:03.929Z,0
2016-04-06T04:03:03.948Z,0
2016-04-06T04:04:03.950Z,0
2016-04-06T04:05:03.953Z,0
2016-04-06T04:06:03.955Z,0
2016-04-06T04:07:04.005Z,0
2016-04-06T04:08:03.977Z,0
2016-04-06T04:09:03.808Z,0
2016-04-06T04:10:03.983Z,0
2016-04-06T04:11:03.985Z,0
2016-04-06T04:12:04.003Z,0
2016-04-06T04:13:03.990Z,0
2016-04-06T04:14:03.993Z,0
2016-04-06T04:15:04.011Z,0
2016-04-06T04:16:04.014Z,0
2016-04-06T04:17:03.860Z,0
2016-04-06T04:18:04.019Z,0
2016-04-06T04:19:04.038Z,0
2016-04-06T04:20:04.040Z,0
2016-04-06T04:21:04.043Z,0
2016-04-06T04:22:04.077Z,0
2016-04-06T04:23:04.048Z,0
2016-04-06T04:24:04.066Z,0
2016-04-06T04:25:04.085Z,0
2016-04-06T04:26:04.071Z,0
2016-04-06T04:27:04.074Z,0
2016-04-06T04:28:04.093Z,0
2016-04-06T04:29:04.095Z,0
2016-04-06T04:30:04.099Z,0
2016-04-06T04:31:04.117Z,0
2016-04-06T04:32:04.088Z,0
2016-04-06T04:33:04.137Z,0
2016-04-06T04:34:04.125Z,0
2016-04-06T04:35:04.142Z,0
2016-04-06T04:36:04.130Z,0
2016-04-06T04:37:04.133Z,0
2016-04-06T04:38:04.135Z,0
2016-04-06T04:39:04.153Z,4
2016-04-06T04:40:04.000Z,4
2016-04-06T04:41:04.159Z,4
2016-04-06T04:42:04.161Z,0
2016-04-06T04:43:04.164Z,0
2016-04-06T04:44:04.183Z,4
2016-04-06T04:45:04.185Z,4
2016-04-06T04:46:04.188Z,4
2016-04-06T04:47:04.191Z,8
2016-04-06T04:48:04.193Z,4
2016-04-06T04:49:04.228Z,4
2016-04-06T04:50:04.215Z,8
2016-04-06T04:51:04.232Z,4
2016-04-06T04:52:04.251Z,8
2016-04-06T04:53:04.223Z,12
2016-04-06T04:54:04.225Z,12
2016-04-06T04:55:04.229Z,12
2016-04-06T04:56:04.246Z,16
2016-04-06T04:57:04.280Z,16
2016-04-06T04:58:04.299Z,16
2016-04-06T04:59:04.285Z,12
2016-04-06T05:00:04.273Z,12
2016-04-06T05:01:04.276Z,12
2016-04-06T05:02:04.278Z,16
2016-04-06T05:03:04.296Z,16
2016-04-06T05:04:04.298Z,16
2016-04-06T05:05:04.301Z,16
2016-04-06T05:06:04.319Z,16
2016-04-06T05:07:04.307Z,16
2016-04-06T05:08:04.326Z,16
2016-04-06T05:09:04.328Z,16
2016-04-06T05:10:04.331Z,16
2016-04-06T05:11:04.334Z,16
2016-04-06T05:12:04.352Z,20
2016-04-06T05:13:04.355Z,20
2016-04-06T05:14:04.358Z,24
2016-04-06T05:15:04.375Z,24
2016-04-06T05:16:04.363Z,28
2016-04-06T05:17:04.396Z,36
2016-04-06T05:18:04.399Z,36
2016-04-06T05:19:04.371Z,36
2016-04-06T05:20:04.421Z,44
2016-04-06T05:21:04.391Z,52
2016-04-06T05:22:04.410Z,64
2016-04-06T05:23:04.397Z,56
2016-04-06T05:24:04.415Z,48
2016-04-06T05:25:04.418Z,44
2016-04-06T05:26:04.421Z,44
2016-04-06T05:27:04.423Z,48
2016-04-06T05:28:04.442Z,48
2016-04-06T05:29:04.424Z,56
2016-04-06T05:30:04.442Z,60
2016-04-06T05:31:04.476Z,60
2016-04-06T05:32:04.448Z,64
2016-04-06T05:33:04.482Z,64
2016-04-06T05:34:04.468Z,64
2016-04-06T05:35:04.487Z,72
2016-04-06T05:36:04.474Z,72
2016-04-06T05:37:04.477Z,76
2016-04-06T05:38:04.511Z,92
2016-04-06T05:39:04.497Z,104
2016-04-06T05:40:04.501Z,92
2016-04-06T05:41:04.503Z,88
2016-04-06T05:42:04.537Z,96
2016-04-06T05:43:04.509Z,104
2016-04-06T05:44:04.542Z,104
2016-04-06T05:45:04.530Z,104
2016-04-06T05:46:04.548Z,100
2016-04-06T05:47:04.550Z,104
2016-04-06T05:48:04.553Z,100
2016-04-06T05:49:04.555Z,100
2016-04-06T05:50:04.574Z,100
2016-04-06T05:51:04.561Z,88
2016-04-06T05:52:04.563Z,88
2016-04-06T05:53:04.582Z,96
2016-04-06T05:54:04.585Z,96
2016-04-06T05:55:04.588Z,96
2016-04-06T05:56:04.590Z,104
2016-04-06T05:57:04.593Z,112
2016-04-06T05:58:04.767Z,124
2016-04-06T05:59:04.614Z,132
2016-04-06T06:00:04.461Z,136
2016-04-06T06:01:04.634Z,140
2016-04-06T06:02:04.638Z,144
2016-04-06T06:03:04.624Z,140
2016-04-06T06:04:04.654Z,144
2016-04-06T06:05:04.905Z,132
2016-04-06T06:06:04.750Z,124
2016-04-06T06:07:04.814Z,128
2016-04-06T06:08:04.863Z,128
2016-04-06T06:09:04.903Z,140
2016-04-06T06:10:04.922Z,136
2016-04-06T06:11:04.956Z,120
2016-04-06T06:12:04.974Z,108
2016-04-06T06:13:04.994Z,104
2016-04-06T06:14:05.010Z,112
2016-04-06T06:15:05.018Z,120
2016-04-06T06:16:05.027Z,124
2016-04-06T06:17:05.051Z,112
2016-04-06T06:18:05.059Z,104
2016-04-06T06:19:05.067Z,88
2016-04-06T06:20:05.180Z,84
2016-04-06T06:21:05.076Z,92
2016-04-06T06:22:05.097Z,100
2016-04-06T06:23:05.117Z,112
2016-04-06T06:24:05.107Z,120
2016-04-06T06:25:05.126Z,124
2016-04-06T06:26:05.146Z,128
2016-04-06T06:27:05.149Z,132
2016-04-06T06:28:05.167Z,156
2016-04-06T06:29:05.125Z,176
2016-04-06T06:30:05.143Z,188
2016-04-06T06:31:05.146Z,216
2016-04-06T06:32:05.165Z,240
2016-04-06T06:33:05.168Z,248
2016-04-06T06:34:05.186Z,224
2016-04-06T06:35:05.298Z,216
2016-04-06T06:36:05.270Z,228
2016-04-06T06:37:05.194Z,236
2016-04-06T06:38:05.026Z,232
2016-04-06T06:39:05.199Z,232
2016-04-06T06:40:05.202Z,220
2016-04-06T06:41:05.221Z,224
2016-04-06T06:42:05.240Z,248
2016-04-06T06:43:05.226Z,240
2016-04-06T06:44:05.229Z,220
2016-04-06T06:45:05.232Z,220
2016-04-06T06:46:05.235Z,224
2016-04-06T06:47:05.253Z,216
2016-04-06T06:48:05.270Z,220
2016-04-06T06:49:05.242Z,264
2016-04-06T06:50:05.495Z,284
2016-04-06T06:51:05.264Z,248
2016-04-06T06:52:05.266Z,264
2016-04-06T06:53:05.284Z,280
2016-04-06T06:54:05.287Z,316
2016-04-06T06:55:05.289Z,320
2016-04-06T06:56:05.308Z,332
2016-04-06T06:57:05.295Z,292
2016-04-06T06:58:05.298Z,284
2016-04-06T06:59:05.316Z,276
2016-04-06T07:00:05.318Z,268
2016-04-06T07:01:05.321Z,264
2016-04-06T07:02:05.325Z,296
2016-04-06T07:03:05.327Z,316
2016-04-06T07:04:05.330Z,352
2016-04-06T07:05:05.379Z,384
2016-04-06T07:06:05.351Z,348
2016-04-06T07:07:05.354Z,368
2016-04-06T07:08:05.356Z,368
2016-04-06T07:09:05.374Z,392
2016-04-06T07:10:05.377Z,412
2016-04-06T07:11:05.380Z,384
2016-04-06T07:12:05.398Z,396
2016-04-06T07:13:05.416Z,548
2016-04-06T07:14:05.387Z,380
2016-04-06T07:15:05.406Z,388
2016-04-06T07:16:05.408Z,416
2016-04-06T07:17:05.411Z,456
2016-04-06T07:18:05.445Z,428
2016-04-06T07:19:05.417Z,368
2016-04-06T07:20:05.513Z,344
2016-04-06T07:21:05.438Z,348
2016-04-06T07:22:05.440Z,352
2016-04-06T07:23:05.443Z,348
2016-04-06T07:24:05.462Z,368
2016-04-06T07:25:05.449Z,372
2016-04-06T07:26:05.483Z,400
2016-04-06T07:27:05.485Z,384
2016-04-06T07:28:05.488Z,360
2016-04-06T07:29:05.475Z,420
2016-04-06T07:30:05.493Z,388
2016-04-06T07:31:05.527Z,404
2016-04-06T07:32:05.499Z,456
2016-04-06T07:33:05.516Z,416
2016-04-06T07:34:05.520Z,388
2016-04-06T07:35:05.507Z,424
2016-04-06T07:36:05.525Z,396
2016-04-06T07:37:05.527Z,392
2016-04-06T07:38:05.546Z,392
2016-04-06T07:39:05.533Z,392
2016-04-06T07:40:05.396Z,376
2016-04-06T07:41:05.570Z,392
2016-04-06T07:42:05.588Z,376
2016-04-06T07:43:05.591Z,376
2016-04-06T07:44:05.593Z,372
2016-04-06T07:45:05.612Z,420
2016-04-06T07:46:05.599Z,436
2016-04-06T07:47:05.602Z,476
2016-04-06T07:48:05.620Z,440
2016-04-06T07:49:05.638Z,476
2016-04-06T07:50:05.641Z,480
2016-04-06T07:51:05.643Z,556
2016-04-06T07:52:05.646Z,556
2016-04-06T07:53:05.633Z,544
2016-04-06T07:54:05.667Z,516
2016-04-06T07:55:05.639Z,528
2016-04-06T07:56:05.641Z,464
2016-04-06T07:57:05.675Z,492
2016-04-06T07:58:05.662Z,464
2016-04-06T07:59:05.665Z,480
2016-04-06T08:00:05.683Z,500
2016-04-06T08:01:05.670Z,476
2016-04-06T08:02:05.688Z,468
2016-04-06T08:03:05.708Z,456
2016-04-06T08:04:05.694Z,512
2016-04-06T08:05:05.696Z,516
2016-04-06T08:06:05.746Z,480
2016-04-06T08:07:05.718Z,508
2016-04-06T08:08:05.752Z,452
2016-04-06T08:09:05.755Z,444
2016-04-06T08:10:05.741Z,444
2016-04-06T08:11:05.760Z,508
2016-04-06T08:12:05.747Z,604
2016-04-06T08:13:05.749Z,576
2016-04-06T08:14:05.768Z,668
2016-04-06T08:15:05.787Z,528
2016-04-06T08:16:05.773Z,564
2016-04-06T08:17:05.760Z,612
2016-04-06T08:18:05.778Z,704
2016-04-06T08:19:05.797Z,724
2016-04-06T08:20:05.800Z,844
2016-04-06T08:21:05.817Z,1064
2016-04-06T08:22:05.820Z,1504
2016-04-06T08:23:05.839Z,1212
2016-04-06T08:24:05.826Z,980
2016-04-06T08:25:05.845Z,1012
2016-04-06T08:26:05.847Z,1260
2016-04-06T08:27:05.850Z,876
2016-04-06T08:28:05.867Z,940
2016-04-06T08:29:05.856Z,832
2016-04-06T08:30:05.889Z,784
2016-04-06T08:31:05.876Z,816
2016-04-06T08:32:05.894Z,956
2016-04-06T08:33:05.881Z,932
2016-04-06T08:34:05.900Z,1128
2016-04-06T08:35:05.903Z,1280
2016-04-06T08:36:05.906Z,1100
2016-04-06T08:37:05.939Z,1180
2016-04-06T08:38:05.941Z,1028
2016-04-06T08:39:05.929Z,900
2016-04-06T08:40:05.947Z,912
2016-04-06T08:41:05.950Z,1044
2016-04-06T08:42:05.937Z,1712
2016-04-06T08:43:05.971Z,1620
2016-04-06T08:44:05.974Z,1712
2016-04-06T08:45:05.961Z,1992
2016-04-06T08:46:05.979Z,3612
2016-04-06T08:47:05.998Z,3412
2016-04-06T08:48:06.001Z,2456
2016-04-06T08:49:05.987Z,2212
2016-04-06T08:50:06.036Z,1924
2016-04-06T08:51:06.009Z,1656
2016-04-06T08:52:06.011Z,2396
2016-04-06T08:53:06.014Z,1656
2016-04-06T08:54:06.032Z,1260
2016-04-06T08:55:06.034Z,1176
2016-04-06T08:56:06.053Z,972
2016-04-06T08:57:06.056Z,1216
2016-04-06T08:58:06.058Z,1328
2016-04-06T08:59:06.076Z,1332
2016-04-06T09:00:06.078Z,1648
2016-04-06T09:01:06.082Z,1928
2016-04-06T09:02:05.944Z,1680
2016-04-06T09:03:06.103Z,2324
2016-04-06T09:04:06.105Z,1452
2016-04-06T09:05:06.124Z,1720
2016-04-06T09:06:06.127Z,1476
2016-04-06T09:07:06.145Z,1260
2016-04-06T09:08:06.132Z,1752
2016-04-06T09:09:06.135Z,1812
2016-04-06T09:10:06.152Z,2972
2016-04-06T09:11:06.155Z,2760
2016-04-06T09:12:06.174Z,2896
2016-04-06T09:13:06.176Z,3176
2016-04-06T09:14:06.180Z,3144
2016-04-06T09:15:06.198Z,1772
2016-04-06T09:16:06.184Z,2768
2016-04-06T09:17:06.203Z,1904
2016-04-06T09:18:06.206Z,2164
2016-04-06T09:19:06.224Z,2084
2016-04-06T09:20:06.226Z,2512
2016-04-06T09:21:06.230Z,2784
2016-04-06T09:22:06.248Z,2180
2016-04-06T09:23:06.234Z,2724
2016-04-06T09:24:06.254Z,2368
2016-04-06T09:25:06.256Z,1916
2016-04-06T09:26:06.259Z,1780
2016-04-06T09:27:06.276Z,2508
2016-04-06T09:28:06.279Z,2588
2016-04-06T09:29:06.298Z,2268
2016-04-06T09:30:06.284Z,2408
2016-04-06T09:31:06.287Z,2532
2016-04-06T09:32:06.306Z,2468
2016-04-06T09:33:06.309Z,2260
2016-04-06T09:34:06.327Z,2552
2016-04-06T09:35:06.345Z,1504
2016-04-06T09:36:06.333Z,2008
2016-04-06T09:37:06.366Z,1936
2016-04-06T09:38:06.353Z,1940
2016-04-06T09:39:06.419Z,1784
2016-04-06T09:40:06.421Z,1744
2016-04-06T09:41:06.377Z,1564
2016-04-06T09:42:06.677Z,1704
2016-04-06T09:43:06.387Z,1648
2016-04-06T09:44:06.405Z,2092
2016-04-06T09:45:06.480Z,1792
2016-04-06T09:46:06.435Z,1716
2016-04-06T09:47:10.703Z,1376
2016-04-06T09:48:06.425Z,1488
2016-04-06T09:49:06.427Z,1296
2016-04-06T09:50:06.462Z,1396
2016-04-06T09:51:06.464Z,1328
2016-04-06T09:52:06.452Z,1192
2016-04-06T09:53:06.469Z,1172
2016-04-06T09:54:06.472Z,1096
2016-04-06T09:55:06.475Z,2088
2016-04-06T09:56:06.477Z,1648
2016-04-06T09:57:06.496Z,1748
2016-04-06T09:58:06.499Z,2620
2016-04-06T09:59:06.501Z,2664
2016-04-06T10:00:06.520Z,2444
2016-04-06T10:01:06.537Z,2368
2016-04-06T10:02:06.526Z,2352
2016-04-06T10:03:06.559Z,2340
2016-04-06T10:04:06.546Z,2128
2016-04-06T10:05:06.565Z,2072
2016-04-06T10:06:06.567Z,1936
2016-04-06T10:07:06.570Z,2168
2016-04-06T10:08:06.573Z,1228
2016-04-06T10:09:06.575Z,1248
2016-04-06T10:10:06.578Z,1212
2016-04-06T10:11:06.643Z,1408
2016-04-06T10:12:06.599Z,2096
2016-04-06T10:13:06.602Z,2216
2016-04-06T10:14:06.620Z,1588
2016-04-06T10:15:06.638Z,1332
2016-04-06T10:16:06.625Z,1996
2016-04-06T10:17:06.644Z,1524
2016-04-06T10:18:06.647Z,2156
2016-04-06T10:19:06.664Z,2088
2016-04-06T10:20:06.652Z,1972
2016-04-06T10:21:06.686Z,1924
2016-04-06T10:22:06.672Z,2128
2016-04-06T10:23:06.675Z,1992
2016-04-06T10:24:06.694Z,1136
2016-04-06T10:25:06.696Z,1908
2016-04-06T10:26:06.715Z,1508
2016-04-06T10:27:06.718Z,1124
2016-04-06T10:28:06.721Z,2008
2016-04-06T10:29:06.738Z,2240
2016-04-06T10:30:06.740Z,1736
2016-04-06T10:31:06.744Z,1544
2016-04-06T10:32:06.762Z,1572
2016-04-06T10:33:06.749Z,2144
2016-04-06T10:34:06.767Z,1516
2016-04-06T10:35:06.771Z,1428
2016-04-06T10:36:06.773Z,1432
2016-04-06T10:37:06.619Z,1332
2016-04-06T10:38:06.794Z,1144
2016-04-06T10:39:06.797Z,1048
2016-04-06T10:40:06.846Z,1044
2016-04-06T10:41:06.817Z,1060
2016-04-06T10:42:06.820Z,952
2016-04-06T10:43:06.823Z,1040
2016-04-06T10:44:06.888Z,900
2016-04-06T10:45:06.844Z,920
2016-04-06T10:46:06.847Z,740
2016-04-06T10:47:06.865Z,652
2016-04-06T10:48:06.853Z,696
2016-04-06T10:49:06.886Z,712
2016-04-06T10:50:06.872Z,788
2016-04-06T10:51:06.891Z,1868
2016-04-06T10:52:06.894Z,940
2016-04-06T10:53:06.897Z,980
2016-04-06T10:54:06.899Z,932
2016-04-06T10:55:06.965Z,804
2016-04-06T10:56:07.218Z,744
2016-04-06T10:57:08.204Z,680
2016-04-06T10:58:06.941Z,684
2016-04-06T10:59:07.022Z,728
2016-04-06T11:00:06.946Z,732
2016-04-06T11:01:06.949Z,680
2016-04-06T11:02:06.951Z,684
2016-04-06T11:03:06.987Z,732
2016-04-06T11:04:07.004Z,764
2016-04-06T11:05:07.022Z,740
2016-04-06T11:06:07.197Z,728
2016-04-06T11:07:06.998Z,820
2016-04-06T11:08:07.015Z,860
2016-04-06T11:09:07.002Z,900
2016-04-06T11:10:07.115Z,1052
2016-04-06T11:11:07.023Z,1124
2016-04-06T11:12:07.025Z,1132
2016-04-06T11:13:07.029Z,1184
2016-04-06T11:14:07.048Z,1228
2016-04-06T11:15:07.065Z,1280
2016-04-06T11:16:07.052Z,1364
2016-04-06T11:17:07.055Z,1336
2016-04-06T11:18:07.073Z,1348
2016-04-06T11:19:07.075Z,1400
2016-04-06T11:20:07.094Z,1388
2016-04-06T11:21:07.097Z,1444
2016-04-06T11:22:07.100Z,1404
2016-04-06T11:23:07.102Z,1592
2016-04-06T11:24:07.105Z,1948
2016-04-06T11:25:07.124Z,2000
2016-04-06T11:26:07.141Z,1916
2016-04-06T11:27:07.129Z,1816
2016-04-06T11:28:07.147Z,1740
2016-04-06T11:29:07.134Z,1332
2016-04-06T11:30:07.152Z,1528
2016-04-06T11:31:07.154Z,1640
2016-04-06T11:32:07.204Z,1324
2016-04-06T11:33:07.192Z,1308
2016-04-06T11:34:07.210Z,1376
2016-04-06T11:35:07.213Z,1224
2016-04-06T11:36:07.559Z,1636
2016-04-06T11:37:07.203Z,1284
2016-04-06T11:38:07.237Z,1424
2016-04-06T11:39:07.223Z,1752
2016-04-06T11:40:07.242Z,1484
2016-04-06T11:41:07.228Z,1444
2016-04-06T11:42:07.232Z,1288
2016-04-06T11:43:07.250Z,1288
2016-04-06T11:44:07.268Z,1332
2016-04-06T11:45:07.255Z,1308
2016-04-06T11:46:07.273Z,1300
2016-04-06T11:47:07.276Z,1232
2016-04-06T11:48:07.279Z,1088
2016-04-06T11:49:07.297Z,1004
2016-04-06T11:50:07.300Z,1020
2016-04-06T11:51:07.428Z,968
2016-04-06T11:52:07.305Z,956
2016-04-06T11:53:07.324Z,960
2016-04-06T11:54:21.451Z,936
2016-04-06T11:55:07.344Z,996
2016-04-06T11:56:07.347Z,1128
2016-04-06T11:57:07.350Z,1184
2016-04-06T11:58:07.353Z,1904
2016-04-06T11:59:07.355Z,1736
2016-04-06T12:00:07.374Z,1404
2016-04-06T12:01:07.376Z,1272
2016-04-06T12:02:07.395Z,1460
2016-04-06T12:03:07.382Z,1592
2016-04-06T12:04:07.401Z,1420
2016-04-06T12:05:07.403Z,1472
2016-04-06T12:06:07.452Z,1420
2016-04-06T12:07:07.423Z,1572
2016-04-06T12:08:07.434Z,1208
2016-04-06T12:09:07.420Z,1436
2016-04-06T12:10:07.438Z,1436
2016-04-06T12:11:07.441Z,1696
2016-04-06T12:12:07.460Z,1484
2016-04-06T12:13:07.463Z,1472
2016-04-06T12:14:07.465Z,1432
2016-04-06T12:15:07.468Z,1556
2016-04-06T12:16:07.486Z,1380
2016-04-06T12:17:07.490Z,1344
2016-04-06T12:18:07.337Z,1300
2016-04-06T12:19:07.512Z,1280
2016-04-06T12:20:07.515Z,1292
2016-04-06T12:21:07.595Z,944
2016-04-06T12:22:07.520Z,1240
2016-04-06T12:23:07.538Z,1156
2016-04-06T12:24:07.587Z,948
2016-04-06T12:25:07.544Z,936
2016-04-06T12:26:07.562Z,1000
2016-04-06T12:27:07.549Z,1064
2016-04-06T12:28:07.567Z,1392
2016-04-06T12:29:07.585Z,1396
2016-04-06T12:30:07.588Z,1404
2016-04-06T12:31:07.591Z,1232
2016-04-06T12:32:07.438Z,1132
2016-04-06T12:33:07.596Z,1128
2016-04-06T12:34:07.615Z,1168
2016-04-06T12:35:07.617Z,1132
2016-04-06T12:36:07.619Z,1060
2016-04-06T12:37:07.638Z,1308
2016-04-06T12:38:07.641Z,1220
2016-04-06T12:39:07.627Z,1220
2016-04-06T12:40:07.663Z,1312
2016-04-06T12:41:07.665Z,1412
2016-04-06T12:42:07.668Z,1236
2016-04-06T12:43:07.670Z,1168
2016-04-06T12:44:07.673Z,1088
2016-04-06T12:45:07.676Z,1212
2016-04-06T12:46:07.694Z,1176
2016-04-06T12:47:07.712Z,1260
2016-04-06T12:48:07.714Z,1416
2016-04-06T12:49:07.718Z,1260
2016-04-06T12:50:07.720Z,1280
2016-04-06T12:51:07.722Z,1264
2016-04-06T12:52:07.741Z,1184
2016-04-06T12:53:07.745Z,1136
2016-04-06T12:54:07.762Z,1108
2016-04-06T12:55:07.764Z,1132
2016-04-06T12:56:07.768Z,1132
2016-04-06T12:57:07.769Z,1136
2016-04-06T12:58:07.773Z,1176
2016-04-06T12:59:07.791Z,1160
2016-04-06T13:00:07.794Z,1100
2016-04-06T13:01:21.922Z,1016
2016-04-06T13:02:07.659Z,1088
2016-04-06T13:03:07.817Z,1052
2016-04-06T13:04:07.819Z,1024
2016-04-06T13:05:07.823Z,980
2016-04-06T13:06:07.841Z,892
2016-04-06T13:07:07.860Z,900
2016-04-06T13:08:07.846Z,968
2016-04-06T13:09:07.881Z,1036
2016-04-06T13:10:07.915Z,1024
2016-04-06T13:11:07.885Z,1068
2016-04-06T13:12:07.873Z,1012
2016-04-06T13:13:07.897Z,976
2016-04-06T13:14:07.900Z,964
2016-04-06T13:15:07.918Z,960
2016-04-06T13:16:07.921Z,908
2016-04-06T13:17:07.924Z,832
2016-04-06T13:18:07.927Z,764
2016-04-06T13:19:07.929Z,736
2016-04-06T13:20:08.026Z,772
2016-04-06T13:21:07.965Z,772
2016-04-06T13:22:07.968Z,864
2016-04-06T13:23:07.955Z,852
2016-04-06T13:24:07.974Z,964
2016-04-06T13:25:07.976Z,976
2016-04-06T13:26:07.838Z,972
2016-04-06T13:27:08.013Z,1000
2016-04-06T13:28:08.015Z,1036
2016-04-06T13:29:08.003Z,1012
2016-04-06T13:30:08.021Z,1044
2016-04-06T13:31:08.009Z,1100
2016-04-06T13:32:08.058Z,1052
2016-04-06T13:33:08.045Z,1096
2016-04-06T13:34:08.079Z,1072
2016-04-06T13:35:08.066Z,1032
2016-04-06T13:36:08.037Z,940
2016-04-06T13:37:08.056Z,916
2016-04-06T13:38:08.058Z,920
2016-04-06T13:39:08.061Z,936
2016-04-06T13:40:08.080Z,980
2016-04-06T13:41:08.082Z,972
2016-04-06T13:42:08.085Z,1004
2016-04-06T13:43:08.103Z,1044
2016-04-06T13:44:08.105Z,1068
2016-04-06T13:45:08.155Z,1096
2016-04-06T13:46:08.111Z,1116
2016-04-06T13:47:08.130Z,1092
2016-04-06T13:48:08.132Z,1116
2016-04-06T13:49:08.135Z,1136
2016-04-06T13:50:08.185Z,1148
2016-04-06T13:51:08.171Z,1172
2016-04-06T13:52:08.174Z,1172
2016-04-06T13:53:08.021Z,1108
2016-04-06T13:54:08.023Z,1064
2016-04-06T13:55:08.041Z,1064
2016-04-06T13:56:08.201Z,1044
2016-04-06T13:57:08.187Z,980
2016-04-06T13:58:08.190Z,948
2016-04-06T13:59:08.209Z,904